Encounter — PHAO — position and weather

sailwx.info

Track history (hours):
 
Tides and Currents Weather Stations Pressure Air Temp Water Temp Dewpoint Dewpoint Depression Visibility Wind Speed Wind Dir Waves Ship Positions

Encounter

Last reported at 2017-Sep-24 06:59 UTC. Time now 2017-Sep-24 07:03 UTC.
Position N 51°01' E 002°11'.

Length 136 m; draft 6.3 m.

Type: Ship (hazmat cat A). MMSI: 245078000.

Date/timePositionNaut miles runAvg speedWind from/ knotsBaromVisibWave heightAir tempDewpointWater temp
2017-Sep-24 06:59N 51°01' E 002°11'0 0.0
2017-Sep-24 06:29N 51°01' E 002°11'0 0.0
2017-Sep-24 05:59N 51°01' E 002°11'0 0.0
2017-Sep-24 05:29N 51°01' E 002°11'0 0.0
2017-Sep-24 04:56N 51°01' E 002°11'0 0.0
2017-Sep-24 04:29N 51°01' E 002°11'0 0.0
2017-Sep-24 03:59N 51°01' E 002°11'0 0.0
2017-Sep-24 03:29N 51°01' E 002°11'0 0.0
2017-Sep-24 02:59N 51°01' E 002°11'0 0.0
2017-Sep-24 02:29N 51°01' E 002°11'0 0.0
2017-Sep-24 01:59N 51°01' E 002°11'0 0.0
2017-Sep-24 01:29N 51°01' E 002°11'0 0.0
2017-Sep-24 00:59N 51°01' E 002°11'0 0.0
2017-Sep-24 00:29N 51°01' E 002°11'0 0.0
2017-Sep-23 23:59N 51°01' E 002°11'0 0.0
2017-Sep-23 23:29N 51°01' E 002°11'0 0.0
2017-Sep-23 22:38N 51°01' E 002°11'0 0.0
2017-Sep-23 22:26N 51°01' E 002°11'0 0.0
2017-Sep-23 21:38N 51°01' E 002°11'0 0.0
2017-Sep-23 21:29N 51°01' E 002°11'0 0.0
2017-Sep-23 20:59N 51°01' E 002°11'0 0.0
2017-Sep-23 20:29N 51°01' E 002°11'0 0.0
2017-Sep-23 19:59N 51°01' E 002°11'78 1.7
2017-Sep-21 23:22N 50°24' E 000°22'514.4
2017-Sep-21 23:00N 50°23' E 000°14'714.9
2017-Sep-21 22:30N 50°21' E 000°03'815.3
2017-Sep-21 22:00N 50°19' W 000°08'10315.2
2017-Sep-21 15:11N 49°50' W 002°43'212.6
2017-Sep-21 15:00N 49°49' W 002°47'612.6
2017-Sep-21 14:30N 49°47' W 002°56'612.5
2017-Sep-21 14:00N 49°45' W 003°05'612.7
2017-Sep-21 13:30N 49°42' W 003°13'612.9
2017-Sep-21 13:00N 49°39' W 003°22'713.0
2017-Sep-21 12:30N 49°36' W 003°31'8313.6
2017-Sep-21 06:22N 48°53' W 005°20'615.7
2017-Sep-21 05:58N 48°49' W 005°28'57211.8
2017-Sep-19 05:18N 39°45' W 009°36'514.4
2017-Sep-19 04:56N 39°40' W 009°39'614.9
2017-Sep-19 04:30N 39°35' W 009°42'714.3
2017-Sep-19 04:00N 39°28' W 009°45'714.8
2017-Sep-19 03:31N 39°21' W 009°44'814.9
2017-Sep-19 03:00N 39°13' W 009°43'815.2
2017-Sep-19 02:31N 39°05' W 009°43'815.1
2017-Sep-19 02:01N 38°58' W 009°43'714.8
2017-Sep-19 01:30N 38°51' W 009°42'714.6
2017-Sep-19 01:00N 38°43' W 009°42'713.8
2017-Sep-19 00:31N 38°37' W 009°38'815.1
2017-Sep-19 00:00N 38°32' W 009°31'715.0
2017-Sep-18 23:30N 38°27' W 009°24'714.7
2017-Sep-18 23:00N 38°22' W 009°17'713.7
2017-Sep-18 22:31N 38°23' W 009°08'815.4
2017-Sep-18 22:01N 38°26' W 008°60'611.3
2017-Sep-18 21:30N 38°30' W 008°55'2 3.1
2017-Sep-18 20:55N 38°31' W 008°52'0 0.0
2017-Sep-18 20:28N 38°31' W 008°52'0 0.0
2017-Sep-18 19:07N 38°31' W 008°52'0 0.0
2017-Sep-18 18:52N 38°31' W 008°52'0 0.0
2017-Sep-18 18:28N 38°31' W 008°52'0 0.0
2017-Sep-18 17:43N 38°31' W 008°52'0 0.0
2017-Sep-18 17:28N 38°31' W 008°52'0 0.0
2017-Sep-18 16:58N 38°31' W 008°52'0 0.0
2017-Sep-18 16:28N 38°31' W 008°52'0 0.0
2017-Sep-18 15:58N 38°31' W 008°52'0 0.0
2017-Sep-18 15:19N 38°31' W 008°52'0 0.0
2017-Sep-18 14:52N 38°31' W 008°52'0 0.0
2017-Sep-18 14:28N 38°31' W 008°52'0 0.0
2017-Sep-18 13:58N 38°31' W 008°52'0 0.0
2017-Sep-18 10:48N 38°31' W 008°52'1 2.0
2017-Sep-18 10:30N 38°31' W 008°53'611.9
2017-Sep-18 10:00N 38°27' W 008°59'713.4
2017-Sep-18 09:31N 38°23' W 009°06'714.3
2017-Sep-18 09:01N 38°21' W 009°15'815.3
2017-Sep-18 08:30N 38°24' W 009°23'815.5
2017-Sep-18 08:00N 38°27' W 009°33'815.8
2017-Sep-18 07:30N 38°29' W 009°42'815.8
2017-Sep-18 07:00N 38°32' W 009°52'815.7
2017-Sep-18 06:30N 38°35' W 010°01'815.3
2017-Sep-18 06:01N 38°42' W 010°06'816.1
2017-Sep-18 05:30N 38°50' W 010°06'815.9
2017-Sep-18 05:01N 38°58' W 010°06'815.6
2017-Sep-18 04:30N 39°05' W 010°07'815.8
2017-Sep-18 04:01N 39°13' W 010°07'815.4
2017-Sep-18 03:29N 39°21' W 010°07'1015.6
2017-Sep-18 02:50N 39°32' W 010°07'515.6
2017-Sep-18 02:31N 39°37' W 010°07'75414.9
2017-Sep-15 23:53N 51°51' W 006°01'716.7
2017-Sep-15 23:27N 51°58' W 005°58'716.7
2017-Sep-15 23:00N 52°05' W 005°56'816.8
2017-Sep-15 22:30N 52°13' W 005°53'917.0
2017-Sep-15 22:00N 52°22' W 005°53'816.8
2017-Sep-15 21:30N 52°30' W 005°53'816.9
2017-Sep-15 21:00N 52°38' W 005°53'3316.5
2017-Sep-15 19:01N 53°11' W 005°58'115.6
2017-Sep-15 18:57N 53°12' W 005°59'614.5
2017-Sep-15 18:30N 53°18' W 006°03'510.3
2017-Sep-15 18:00N 53°21' W 006°10'1 2.9
2017-Sep-15 17:30N 53°21' W 006°13'0 0.0
2017-Sep-15 17:00N 53°21' W 006°13'0 0.0
2017-Sep-15 16:30N 53°21' W 006°13'0 0.0
2017-Sep-15 14:45N 53°21' W 006°13'0 0.0
2017-Sep-15 14:18N 53°21' W 006°13'0 0.0
2017-Sep-15 11:05N 53°21' W 006°13'0 0.1
2017-Sep-15 10:55N 53°21' W 006°13'3 5.5
2017-Sep-15 10:26N 53°21' W 006°08'511.3
2017-Sep-15 09:59N 53°21' W 005°60'713.9
2017-Sep-15 09:30N 53°24' W 005°49'7313.3
2017-Sep-15 04:01N 53°34' W 003°48'013.1
2017-Sep-15 04:00N 53°34' W 003°47'812.9
2017-Sep-15 03:24N 53°33' W 003°35'512.9
2017-Sep-15 03:00N 53°33' W 003°26'612.0
2017-Sep-15 02:30N 53°32' W 003°16'5 9.7
2017-Sep-15 02:00N 53°32' W 003°08'510.8
2017-Sep-15 01:30N 53°27' W 003°02'1 1.8
2017-Sep-15 01:00N 53°27' W 003°01'0 0.1
2017-Sep-15 00:30N 53°27' W 003°01'1 1.2
2017-Sep-15 00:00N 53°28' W 003°02'0 0.0
2017-Sep-14 23:30N 53°28' W 003°02'0 0.0
2017-Sep-14 23:00N 53°28' W 003°02'0 0.0
2017-Sep-14 22:30N 53°28' W 003°02'0 0.0
2017-Sep-14 22:00N 53°28' W 003°02'0 0.0
2017-Sep-14 21:30N 53°28' W 003°02'0 0.0
2017-Sep-14 21:00N 53°28' W 003°02'0 0.0
2017-Sep-14 20:30N 53°28' W 003°02'0 0.0
2017-Sep-14 20:00N 53°28' W 003°02'0 0.0
2017-Sep-14 19:30N 53°28' W 003°02'0 0.0
2017-Sep-14 19:00N 53°28' W 003°02'0 0.0
2017-Sep-14 18:30N 53°28' W 003°02'0 0.0
2017-Sep-14 18:00N 53°28' W 003°02'0 0.0
2017-Sep-14 17:30N 53°28' W 003°02'0 0.0
2017-Sep-14 17:00N 53°28' W 003°02'0 0.0
2017-Sep-14 16:30N 53°28' W 003°02'0 0.0
2017-Sep-14 16:00N 53°28' W 003°02'0 0.0
2017-Sep-14 15:30N 53°28' W 003°02'0 0.0
2017-Sep-14 15:00N 53°28' W 003°02'0 0.0
2017-Sep-14 14:30N 53°28' W 003°02'0 0.0
2017-Sep-14 14:00N 53°28' W 003°02'0 0.0
2017-Sep-14 13:30N 53°28' W 003°02'0 0.0
2017-Sep-14 13:00N 53°28' W 003°02'0 0.0
2017-Sep-14 12:30N 53°28' W 003°02'0 0.0
2017-Sep-14 12:00N 53°28' W 003°02'0 0.0
2017-Sep-14 11:30N 53°28' W 003°02'0 0.0
2017-Sep-14 11:00N 53°28' W 003°02'0 0.0
2017-Sep-14 10:30N 53°28' W 003°02'0 0.0
2017-Sep-14 10:00N 53°28' W 003°02'0 0.0
2017-Sep-14 09:30N 53°28' W 003°02'0 0.0
2017-Sep-14 09:00N 53°28' W 003°02'0 0.0
2017-Sep-14 08:30N 53°28' W 003°02'0 0.0
2017-Sep-14 08:00N 53°28' W 003°02'0 0.0
2017-Sep-14 07:30N 53°28' W 003°02'0 0.0
2017-Sep-14 07:00N 53°28' W 003°02'  
Track history (hours):
 
Tides and Currents Weather Stations Pressure Air Temp Water Temp Dewpoint Dewpoint Depression Visibility Wind Speed Wind Dir Waves Ship Positions

Encounter

Last reported at 2017-Sep-24 06:59 UTC. Time now 2017-Sep-24 07:03 UTC.
Position N 51°01' E 002°11'.

Length 136 m; draft 6.3 m.

Type: Ship (hazmat cat A). MMSI: 245078000.

Date/timePositionNaut miles runAvg speedWind from/ knotsBaromVisibWave heightAir tempDewpointWater temp
2017-Sep-24 06:59N 51°01' E 002°11'0 0.0
2017-Sep-24 06:29N 51°01' E 002°11'0 0.0
2017-Sep-24 05:59N 51°01' E 002°11'0 0.0
2017-Sep-24 05:29N 51°01' E 002°11'0 0.0
2017-Sep-24 04:56N 51°01' E 002°11'0 0.0
2017-Sep-24 04:29N 51°01' E 002°11'0 0.0
2017-Sep-24 03:59N 51°01' E 002°11'0 0.0
2017-Sep-24 03:29N 51°01' E 002°11'0 0.0
2017-Sep-24 02:59N 51°01' E 002°11'0 0.0
2017-Sep-24 02:29N 51°01' E 002°11'0 0.0
2017-Sep-24 01:59N 51°01' E 002°11'0 0.0
2017-Sep-24 01:29N 51°01' E 002°11'0 0.0
2017-Sep-24 00:59N 51°01' E 002°11'0 0.0
2017-Sep-24 00:29N 51°01' E 002°11'0 0.0
2017-Sep-23 23:59N 51°01' E 002°11'0 0.0
2017-Sep-23 23:29N 51°01' E 002°11'0 0.0
2017-Sep-23 22:38N 51°01' E 002°11'0 0.0
2017-Sep-23 22:26N 51°01' E 002°11'0 0.0
2017-Sep-23 21:38N 51°01' E 002°11'0 0.0
2017-Sep-23 21:29N 51°01' E 002°11'0 0.0
2017-Sep-23 20:59N 51°01' E 002°11'0 0.0
2017-Sep-23 20:29N 51°01' E 002°11'0 0.0
2017-Sep-23 19:59N 51°01' E 002°11'78 1.7
2017-Sep-21 23:22N 50°24' E 000°22'514.4
2017-Sep-21 23:00N 50°23' E 000°14'714.9
2017-Sep-21 22:30N 50°21' E 000°03'815.3
2017-Sep-21 22:00N 50°19' W 000°08'10315.2
2017-Sep-21 15:11N 49°50' W 002°43'212.6
2017-Sep-21 15:00N 49°49' W 002°47'612.6
2017-Sep-21 14:30N 49°47' W 002°56'612.5
2017-Sep-21 14:00N 49°45' W 003°05'612.7
2017-Sep-21 13:30N 49°42' W 003°13'612.9
2017-Sep-21 13:00N 49°39' W 003°22'713.0
2017-Sep-21 12:30N 49°36' W 003°31'8313.6
2017-Sep-21 06:22N 48°53' W 005°20'615.7
2017-Sep-21 05:58N 48°49' W 005°28'57211.8
2017-Sep-19 05:18N 39°45' W 009°36'514.4
2017-Sep-19 04:56N 39°40' W 009°39'614.9
2017-Sep-19 04:30N 39°35' W 009°42'714.3
2017-Sep-19 04:00N 39°28' W 009°45'714.8
2017-Sep-19 03:31N 39°21' W 009°44'814.9
2017-Sep-19 03:00N 39°13' W 009°43'815.2
2017-Sep-19 02:31N 39°05' W 009°43'815.1
2017-Sep-19 02:01N 38°58' W 009°43'714.8
2017-Sep-19 01:30N 38°51' W 009°42'714.6
2017-Sep-19 01:00N 38°43' W 009°42'713.8
2017-Sep-19 00:31N 38°37' W 009°38'815.1
2017-Sep-19 00:00N 38°32' W 009°31'715.0
2017-Sep-18 23:30N 38°27' W 009°24'714.7
2017-Sep-18 23:00N 38°22' W 009°17'713.7
2017-Sep-18 22:31N 38°23' W 009°08'815.4
2017-Sep-18 22:01N 38°26' W 008°60'611.3
2017-Sep-18 21:30N 38°30' W 008°55'2 3.1
2017-Sep-18 20:55N 38°31' W 008°52'0 0.0
2017-Sep-18 20:28N 38°31' W 008°52'0 0.0
2017-Sep-18 19:07N 38°31' W 008°52'0 0.0
2017-Sep-18 18:52N 38°31' W 008°52'0 0.0
2017-Sep-18 18:28N 38°31' W 008°52'0 0.0
2017-Sep-18 17:43N 38°31' W 008°52'0 0.0
2017-Sep-18 17:28N 38°31' W 008°52'0 0.0
2017-Sep-18 16:58N 38°31' W 008°52'0 0.0
2017-Sep-18 16:28N 38°31' W 008°52'0 0.0
2017-Sep-18 15:58N 38°31' W 008°52'0 0.0
2017-Sep-18 15:19N 38°31' W 008°52'0 0.0
2017-Sep-18 14:52N 38°31' W 008°52'0 0.0
2017-Sep-18 14:28N 38°31' W 008°52'0 0.0
2017-Sep-18 13:58N 38°31' W 008°52'0 0.0
2017-Sep-18 10:48N 38°31' W 008°52'1 2.0
2017-Sep-18 10:30N 38°31' W 008°53'611.9
2017-Sep-18 10:00N 38°27' W 008°59'713.4
2017-Sep-18 09:31N 38°23' W 009°06'714.3
2017-Sep-18 09:01N 38°21' W 009°15'815.3
2017-Sep-18 08:30N 38°24' W 009°23'815.5
2017-Sep-18 08:00N 38°27' W 009°33'815.8
2017-Sep-18 07:30N 38°29' W 009°42'815.8
2017-Sep-18 07:00N 38°32' W 009°52'815.7
2017-Sep-18 06:30N 38°35' W 010°01'815.3
2017-Sep-18 06:01N 38°42' W 010°06'816.1
2017-Sep-18 05:30N 38°50' W 010°06'815.9
2017-Sep-18 05:01N 38°58' W 010°06'815.6
2017-Sep-18 04:30N 39°05' W 010°07'815.8
2017-Sep-18 04:01N 39°13' W 010°07'815.4
2017-Sep-18 03:29N 39°21' W 010°07'1015.6
2017-Sep-18 02:50N 39°32' W 010°07'515.6
2017-Sep-18 02:31N 39°37' W 010°07'75414.9
2017-Sep-15 23:53N 51°51' W 006°01'716.7
2017-Sep-15 23:27N 51°58' W 005°58'716.7
2017-Sep-15 23:00N 52°05' W 005°56'816.8
2017-Sep-15 22:30N 52°13' W 005°53'917.0
2017-Sep-15 22:00N 52°22' W 005°53'816.8
2017-Sep-15 21:30N 52°30' W 005°53'816.9
2017-Sep-15 21:00N 52°38' W 005°53'3316.5
2017-Sep-15 19:01N 53°11' W 005°58'115.6
2017-Sep-15 18:57N 53°12' W 005°59'614.5
2017-Sep-15 18:30N 53°18' W 006°03'510.3
2017-Sep-15 18:00N 53°21' W 006°10'1 2.9
2017-Sep-15 17:30N 53°21' W 006°13'0 0.0
2017-Sep-15 17:00N 53°21' W 006°13'0 0.0
2017-Sep-15 16:30N 53°21' W 006°13'0 0.0
2017-Sep-15 14:45N 53°21' W 006°13'0 0.0
2017-Sep-15 14:18N 53°21' W 006°13'0 0.0
2017-Sep-15 11:05N 53°21' W 006°13'0 0.1
2017-Sep-15 10:55N 53°21' W 006°13'3 5.5
2017-Sep-15 10:26N 53°21' W 006°08'511.3
2017-Sep-15 09:59N 53°21' W 005°60'713.9
2017-Sep-15 09:30N 53°24' W 005°49'7313.3
2017-Sep-15 04:01N 53°34' W 003°48'013.1
2017-Sep-15 04:00N 53°34' W 003°47'812.9
2017-Sep-15 03:24N 53°33' W 003°35'512.9
2017-Sep-15 03:00N 53°33' W 003°26'612.0
2017-Sep-15 02:30N 53°32' W 003°16'5 9.7
2017-Sep-15 02:00N 53°32' W 003°08'510.8
2017-Sep-15 01:30N 53°27' W 003°02'1 1.8
2017-Sep-15 01:00N 53°27' W 003°01'0 0.1
2017-Sep-15 00:30N 53°27' W 003°01'1 1.2
2017-Sep-15 00:00N 53°28' W 003°02'0 0.0
2017-Sep-14 23:30N 53°28' W 003°02'0 0.0
2017-Sep-14 23:00N 53°28' W 003°02'0 0.0
2017-Sep-14 22:30N 53°28' W 003°02'0 0.0
2017-Sep-14 22:00N 53°28' W 003°02'0 0.0
2017-Sep-14 21:30N 53°28' W 003°02'0 0.0
2017-Sep-14 21:00N 53°28' W 003°02'0 0.0
2017-Sep-14 20:30N 53°28' W 003°02'0 0.0
2017-Sep-14 20:00N 53°28' W 003°02'0 0.0
2017-Sep-14 19:30N 53°28' W 003°02'0 0.0
2017-Sep-14 19:00N 53°28' W 003°02'0 0.0
2017-Sep-14 18:30N 53°28' W 003°02'0 0.0
2017-Sep-14 18:00N 53°28' W 003°02'0 0.0
2017-Sep-14 17:30N 53°28' W 003°02'0 0.0
2017-Sep-14 17:00N 53°28' W 003°02'0 0.0
2017-Sep-14 16:30N 53°28' W 003°02'0 0.0
2017-Sep-14 16:00N 53°28' W 003°02'0 0.0
2017-Sep-14 15:30N 53°28' W 003°02'0 0.0
2017-Sep-14 15:00N 53°28' W 003°02'0 0.0
2017-Sep-14 14:30N 53°28' W 003°02'0 0.0
2017-Sep-14 14:00N 53°28' W 003°02'0 0.0
2017-Sep-14 13:30N 53°28' W 003°02'0 0.0
2017-Sep-14 13:00N 53°28' W 003°02'0 0.0
2017-Sep-14 12:30N 53°28' W 003°02'0 0.0
2017-Sep-14 12:00N 53°28' W 003°02'0 0.0
2017-Sep-14 11:30N 53°28' W 003°02'0 0.0
2017-Sep-14 11:00N 53°28' W 003°02'0 0.0
2017-Sep-14 10:30N 53°28' W 003°02'0 0.0
2017-Sep-14 10:00N 53°28' W 003°02'0 0.0
2017-Sep-14 09:30N 53°28' W 003°02'0 0.0
2017-Sep-14 09:00N 53°28' W 003°02'0 0.0
2017-Sep-14 08:30N 53°28' W 003°02'0 0.0
2017-Sep-14 08:00N 53°28' W 003°02'0 0.0
2017-Sep-14 07:30N 53°28' W 003°02'0 0.0
2017-Sep-14 07:00N 53°28' W 003°02'  

Dump ship's entire track history